Metar Cercanos

 

LEPA - Palma De Mallorc, Spain
Distance from station: ONO 38km
Actualización: 09/12/2018 21:00
Few Clouds
Few Clouds
 Viento del N
Viento: N 11 km/h, Racha: 30 km/h
Temperatura: 18°C
Rocío: 6°C
Humedad: 46%
Barómetro: 1025 hPa
Clouds: Few Clouds
Visibility: 10 km
Cloud details: Few Clouds 610 m
2018/12/09 20:00 LEPA 092000Z 01006G16KT 9999 FEW020 18/06 Q1025 NOSIG
LEMH - Mahon/Menorca Is, Spain
Distance from station: ENE 105km
Actualización: 09/12/2018 21:00
Few Clouds
Few Clouds
 Viento del N
Viento: N 9 km/h
Temperatura: 11°C
Rocío: 10°C
Humedad: 94%
Barómetro: 1026 hPa
Clouds: Few Clouds
Visibility: 10 km
Cloud details: Few Clouds 610 m
2018/12/09 20:00 LEMH 092000Z 35005KT 9999 FEW020 11/10 Q1026
 
LEIB - Ibiza/Es Codola, Spain
Distance from station: OSO 165km
Actualización: 09/12/2018 21:00
Despejado
Despejado
 Viento del SO
Viento: SO 13 km/h
Temperatura: 15°C
Rocío: 14°C
Humedad: 94%
Barómetro: 1026 hPa
Resumen: Despejado
Visibility: greater than 10 km
2018/12/09 20:00 LEIB 092000Z 22007KT CAVOK 15/14 Q1026 NOSIG
LEBL - Barcelona Airpor, Spain
Distance from station: NNO 225km
Actualización: 09/12/2018 21:00
Despejado
Despejado
 Viento del N
Viento: N 9 km/h
Temperatura: 14°C
Rocío: 10°C
Humedad: 77%
Barómetro: 1025 hPa
Resumen: Despejado
Visibility: greater than 10 km
2018/12/09 20:00 LEBL 092000Z 36005KT CAVOK 14/10 Q1025 NOSIG
 
LEVC - Valencia (civ/Mi, Spain
Distance from station: NO 188km
Actualización: 09/12/2018 21:00
Despejado
Despejado
 Viento del ONO
Viento: ONO 13 km/h
Temperatura: 13°C
Rocío: 9°C
Humedad: 77%
Barómetro: 1027 hPa
Resumen: Despejado
Visibility: greater than 10 km
2018/12/09 20:00 LEVC 092000Z 29007KT CAVOK 13/09 Q1027 NOSIG
LEGE - Gerona/Costa Bra, Spain
Distance from station: N 276km
Actualización: 09/12/2018 21:00
Despejado
Despejado
 Viento del calm
Viento: Calma
Temperatura: 7°C
Rocío: 7°C
Humedad: 100%
Barómetro: 1026 hPa
Resumen: Despejado
Visibility: greater than 10 km
2018/12/09 20:00 LEGE 092000Z 00000KT CAVOK 07/07 Q1026
 
LEAL - Alicante/El Alte, Spain
Distance from station: OSO 344km
Actualización: 09/12/2018 21:00
Despejado
Despejado
 Viento del varies
Viento: varies 7 km/h
Temperatura: 14°C
Rocío: 8°C
Humedad: 67%
Barómetro: 1027 hPa
Resumen: Despejado
Visibility: greater than 10 km
2018/12/09 20:00 LEAL 092000Z VRB04KT CAVOK 14/08 Q1027 NOSIG
LEAM - Almeria Airport, Spain
Distance from station: SSO 56km
Actualización: 09/12/2018 21:00
Few Clouds
Few Clouds
 Viento del N
Viento: N 7 km/h
Temperatura: 13°C
Rocío: 11°C
Humedad: 88%
Barómetro: 1027 hPa
Clouds: Few Clouds
Visibility: 10 km
Cloud details: Few Clouds 457 m
2018/12/09 20:00 LEAM 092000Z 35004KT 9999 FEW015 13/11 Q1027
 
LEZG - Zaragoza (mil/Ci, Spain
Distance from station: NO 431km
Actualización: 09/12/2018 21:00
Few Clouds
Few Clouds
 Viento del O
Viento: O 24 km/h
Temperatura: 11°C
Rocío: 5°C
Humedad: 67%
Barómetro: 1031 hPa
Clouds: Few Clouds
Visibility: 10 km
Cloud details: Few Clouds 1829 m
2018/12/09 20:00 LEZG 092000Z 27013KT 9999 FEW060 11/05 Q1031
LEMD - Madrid/Barajas, Spain
Distance from station: ONO 234km
Actualización: 09/12/2018 21:00
Parcialmente nuboso
Parcialmente nuboso
 Viento del N
Viento: N 6 km/h
Temperatura: 7°C
Rocío: 7°C
Humedad: 100%
Barómetro: 1031 hPa
Clouds: Parcialmente nuboso
Visibility: 9 km
2018/12/09 20:00 LEMD 092000Z 36003KT 9000 NSC 07/07 Q1031 NOSIG
 
LEGR - Granada Airport, Spain
Distance from station: OSO 62km
Actualización: 09/12/2018 21:00
Despejado
Despejado
 Viento del calm
Viento: Calma
Temperatura: 7°C
Rocío: 5°C
Humedad: 87%
Barómetro: 1030 hPa
Resumen: Despejado
Visibility: greater than 10 km
2018/12/09 20:00 LEGR 092000Z 00000KT CAVOK 07/05 Q1030
LEMG - Malaga (civ/Mil), Spain
Distance from station: OSO 227km
Actualización: 09/12/2018 21:00
Few Clouds
Few Clouds
 Viento del O
Viento: O 9 km/h
Temperatura: 12°C
Rocío: 11°C
Humedad: 94%
Barómetro: 1028 hPa
Clouds: Few Clouds
Visibility: 10 km
Cloud details: Few Clouds 457 m
2018/12/09 20:00 LEMG 092000Z 27005KT 9999 FEW015 12/11 Q1028 NOSIG
 
LEZL - Sevilla (civ/Mil, Spain
Distance from station: S 318km
Actualización: 09/12/2018 21:00
Despejado
Despejado
 Viento del NE
Viento: NE 6 km/h
Temperatura: 13°C
Rocío: 10°C
Humedad: 82%
Barómetro: 1028 hPa
Resumen: Despejado
Visibility: greater than 10 km
2018/12/09 20:00 LEZL 092000Z 04003KT CAVOK 13/10 Q1028 NOSIG
LEVT - Vitoria, Spain
Distance from station: NO 226km
Actualización: 09/12/2018 21:00
Muy nuboso
Muy nuboso
 Viento del NNO
Viento: NNO 7 km/h
Temperatura: 10°C
Sensación frio: 9°C
Rocío: 5°C
Humedad: 71%
Barómetro: 1034 hPa
Clouds: Muy nuboso
Visibility: 10 km
Cloud details: Muy nuboso 762 m
2018/12/09 20:00 LEVT 092000Z 34004KT 300V010 9999 BKN025 10/05 Q1034
 
LEBB - Bilbao/Sondica, Spain
Distance from station: NNO 235km
Actualización: 09/12/2018 21:00
Muy nuboso
Muy nuboso
 Viento del N
Viento: N 11 km/h
Temperatura: 13°C
Rocío: 10°C
Humedad: 82%
Barómetro: 1034 hPa
Clouds: Muy nuboso
Visibility: 9 km
Cloud details: Parcialmente nuboso 762 m
Muy nuboso 1372 m
2018/12/09 20:00 LEBB 092000Z 35006KT 320V020 9000 SCT025 BKN045 13/10 Q1034 NOSIG
LESO - San Sebastian/Fu, Spain
Distance from station: N 231km
Actualización: 09/12/2018 21:00
Muy nuboso
Muy nuboso
 Viento del NNO
Viento: NNO 19 km/h
Temperatura: 14°C
Rocío: 10°C
Humedad: 77%
Barómetro: 1034 hPa
Clouds: Muy nuboso
Visibility: 7 km
Cloud details: Parcialmente nuboso 610 m
Muy nuboso 1615 m
2018/12/09 20:00 LESO 092000Z 33010KT 280V020 7000 SCT020 BKN053 14/10 Q1034
 
LEVD - Valladolid(Mil/C, Spain
Distance from station: ONO 239km
Actualización: 09/12/2018 21:00
Despejado
Despejado
 Viento del ENE
Viento: ENE 7 km/h
Temperatura: 5°C
Sensación frio: 3°C
Rocío: 3°C
Humedad: 87%
Barómetro: 1032 hPa
Resumen: Despejado
Visibility: greater than 10 km
2018/12/09 20:00 LEVD 092000Z 07004KT CAVOK 05/03 Q1032
LESA - Salamanca (civ/M, Spain
Distance from station: ONO 349km
Actualización: 09/12/2018 21:00
Despejado
Despejado
 Viento del calm
Viento: Calma
Temperatura: 3°C
Rocío: 2°C
Humedad: 93%
Barómetro: 1033 hPa
Clouds: Despejado
Visibility: 10 km
2018/12/09 20:00 LESA 092000Z AUTO 00000KT 9999 NCD 03/02 Q1033
 
LEXJ - Santander/Paraya, Spain
Distance from station: NNO 247km
Actualización: 09/12/2018 21:00
Cubierto
Cubierto
 Viento del OSO
Viento: OSO 9 km/h
Temperatura: 13°C
Rocío: 11°C
Humedad: 88%
Barómetro: 1035 hPa
Clouds: Cubierto
Visibility: 6 km
Cloud details: Muy nuboso 1250 m
Cubierto 1463 m
2018/12/09 20:00 LEXJ 092000Z 25005KT 6000 BKN041 OVC048 13/11 Q1035
LEAS - Asturias/Aviles, Spain
Distance from station: NO 214km
Actualización: 09/12/2018 21:00
Mist, Cubierto
Mist, Cubierto
 Viento del calm
Viento: Calma
Temperatura: 12°C
Rocío: 10°C
Humedad: 88%
Barómetro: 1035 hPa
Resumen: Mist
Clouds: Cubierto
Visibility: 5 km
Cloud details: Parcialmente nuboso 884 m
Cubierto 975 m
2018/12/09 20:00 LEAS 092000Z 00000KT 5000 BR SCT029 OVC032 12/10 Q1035 TEMPO 3000 BR
 
LECO - La Coruna/Alvedr, Spain
Distance from station: ONO 222km
Actualización: 09/12/2018 21:00
Parcialmente nuboso
Parcialmente nuboso
 Viento del NO
Viento: NO 4 km/h
Temperatura: 9°C
Rocío: 8°C
Humedad: 94%
Barómetro: 1034 hPa
Clouds: Parcialmente nuboso
Visibility: 6 km
2018/12/09 20:00 LECO 092000Z 32002KT 6000 NSC 09/08 Q1034 TEMPO 3000 BR
LEVX - Vigo/Peinador, Spain
Distance from station: O 214km
Actualización: 09/12/2018 21:00
Despejado
Despejado
 Viento del NE
Viento: NE 4 km/h
Temperatura: 11°C
Rocío: 11°C
Humedad: 100%
Barómetro: 1031 hPa
Resumen: Despejado
Visibility: greater than 10 km
2018/12/09 20:00 LEVX 092000Z 04002KT CAVOK 11/11 Q1031 NOSIG